createdAt,value
2024-04-12T00:02:13.574Z,15.40
2024-04-12T00:04:42.081Z,13.07
2024-04-12T00:07:16.632Z,14.10
2024-04-12T00:09:54.026Z,13.90
2024-04-12T00:12:28.387Z,11.93
2024-04-12T00:15:18.551Z,12.75
2024-04-12T00:17:46.991Z,11.93
2024-04-12T00:20:19.788Z,11.82
2024-04-12T00:22:49.928Z,9.68
2024-04-12T00:25:21.879Z,9.52
2024-04-12T00:27:48.942Z,7.18
2024-04-12T00:30:39.423Z,6.30
2024-04-12T00:33:11.891Z,5.10
2024-04-12T00:35:42.269Z,4.80
2024-04-12T00:38:13.833Z,4.90
2024-04-12T00:40:47.325Z,4.22
2024-04-12T00:43:17.329Z,3.95
2024-04-12T00:45:50.582Z,3.85
2024-04-12T00:48:18.655Z,4.03
2024-04-12T00:50:53.822Z,4.32
2024-04-12T00:53:23.702Z,3.22
2024-04-12T00:56:01.493Z,3.65
2024-04-12T00:58:33.750Z,3.72
2024-04-12T01:01:12.052Z,4.00
2024-04-12T01:03:47.221Z,3.75
2024-04-12T01:06:22.710Z,3.92
2024-04-12T01:08:53.247Z,4.18
2024-04-12T01:11:23.901Z,4.32
2024-04-12T01:13:51.740Z,4.28
2024-04-12T01:16:24.788Z,5.00
2024-04-12T01:18:56.369Z,5.40
2024-04-12T01:21:26.348Z,6.03
2024-04-12T01:23:55.186Z,6.70
2024-04-12T01:26:29.080Z,6.72
2024-04-12T01:28:57.969Z,6.72
2024-04-12T01:31:28.855Z,7.03
2024-04-12T01:33:56.074Z,6.43
2024-04-12T01:36:27.378Z,5.38
2024-04-12T01:38:54.817Z,4.78
2024-04-12T01:41:33.714Z,4.38
2024-04-12T01:44:05.765Z,4.72
2024-04-12T01:46:36.355Z,4.38
2024-04-12T01:49:06.496Z,4.47
2024-04-12T01:51:36.786Z,4.78
2024-04-12T01:54:15.187Z,5.07
2024-04-12T01:56:49.684Z,4.97
2024-04-12T01:59:18.902Z,5.50
2024-04-12T02:01:49.942Z,5.20
2024-04-12T02:04:23.186Z,5.60
2024-04-12T02:06:54.267Z,5.43
2024-04-12T02:09:21.879Z,5.20
2024-04-12T02:11:55.039Z,5.28
2024-04-12T02:14:22.340Z,5.25
2024-04-12T02:16:52.279Z,4.75
2024-04-12T02:19:23.499Z,6.10
2024-04-12T02:21:54.212Z,4.65
2024-04-12T02:24:21.286Z,3.78
2024-04-12T02:26:54.879Z,4.10
2024-04-12T02:29:22.955Z,4.40
2024-04-12T02:31:52.835Z,4.25
2024-04-12T02:34:20.103Z,4.47
2024-04-12T02:36:50.026Z,4.07
2024-04-12T02:39:23.831Z,4.10
2024-04-12T02:41:56.356Z,3.47
2024-04-12T02:44:26.210Z,3.05
2024-04-12T02:46:55.919Z,3.45
2024-04-12T02:49:23.857Z,3.47
2024-04-12T02:51:54.341Z,3.47
2024-04-12T02:54:23.928Z,3.13
2024-04-12T02:57:00.796Z,3.20
2024-04-12T02:59:28.621Z,2.92
2024-04-12T03:02:00.502Z,2.60
2024-04-12T03:04:28.989Z,3.00
2024-04-12T03:07:10.518Z,3.25
2024-04-12T03:09:41.709Z,3.03
2024-04-12T03:12:14.199Z,3.13
2024-04-12T03:14:41.311Z,3.10
2024-04-12T03:17:13.024Z,3.72
2024-04-12T03:19:40.067Z,3.50
2024-04-12T03:22:09.733Z,3.75
2024-04-12T03:24:36.787Z,3.72
2024-04-12T03:27:07.302Z,3.80
2024-04-12T03:29:37.046Z,3.83
2024-04-12T03:32:08.815Z,3.72
2024-04-12T03:34:38.999Z,3.72
2024-04-12T03:37:24.566Z,3.38
2024-04-12T03:40:01.463Z,3.60
2024-04-12T03:42:32.020Z,3.78
2024-04-12T03:45:14.188Z,3.50
2024-04-12T03:47:46.298Z,3.92
2024-04-12T03:50:14.890Z,3.92
2024-04-12T03:52:46.358Z,4.20
2024-04-12T03:55:13.738Z,3.72
2024-04-12T03:57:45.434Z,3.60
2024-04-12T04:00:18.665Z,3.67
2024-04-12T04:02:49.529Z,3.35
2024-04-12T04:05:26.758Z,3.63
2024-04-12T04:07:55.438Z,4.10
2024-04-12T04:10:26.907Z,3.17
2024-04-12T04:12:54.967Z,3.70
2024-04-12T04:15:27.366Z,3.53
2024-04-12T04:17:55.276Z,3.30
2024-04-12T04:20:28.436Z,3.47
2024-04-12T04:23:03.788Z,3.40
2024-04-12T04:25:33.769Z,3.47
2024-04-12T04:28:00.950Z,4.07
2024-04-12T04:30:36.752Z,4.10
2024-04-12T04:33:04.654Z,4.35
2024-04-12T04:35:35.229Z,4.07
2024-04-12T04:38:02.519Z,4.32
2024-04-12T04:40:36.858Z,4.53
2024-04-12T04:43:07.455Z,5.43
2024-04-12T04:45:40.099Z,4.93
2024-04-12T04:48:12.321Z,5.10
2024-04-12T04:50:43.213Z,5.80
2024-04-12T04:53:13.497Z,6.38
2024-04-12T04:55:40.673Z,6.35
2024-04-12T04:58:10.299Z,7.38
2024-04-12T05:00:42.662Z,7.00
2024-04-12T05:03:16.643Z,7.95
2024-04-12T05:05:43.892Z,7.47
2024-04-12T05:08:15.992Z,7.05
2024-04-12T05:10:43.103Z,8.25
2024-04-12T05:13:12.934Z,7.53
2024-04-12T05:15:51.548Z,7.90
2024-04-12T05:18:22.017Z,8.10
2024-04-12T05:20:49.957Z,7.53
2024-04-12T05:23:22.036Z,7.95
2024-04-12T05:25:50.137Z,7.55
2024-04-12T05:28:20.691Z,7.75
2024-04-12T05:30:52.501Z,7.60
2024-04-12T05:33:24.528Z,8.18
2024-04-12T05:35:52.414Z,7.80
2024-04-12T05:38:26.011Z,7.43
2024-04-12T05:40:54.575Z,7.63
2024-04-12T05:43:26.142Z,8.63
2024-04-12T05:45:55.802Z,7.47
2024-04-12T05:48:26.344Z,8.48
2024-04-12T05:50:55.899Z,7.90
2024-04-12T05:53:31.261Z,8.30
2024-04-12T05:56:19.713Z,8.95
2024-04-12T05:58:52.103Z,7.85
2024-04-12T06:01:25.945Z,7.97
2024-04-12T06:03:58.106Z,8.77
2024-04-12T06:06:25.880Z,9.43
2024-04-12T06:08:59.908Z,9.40
2024-04-12T06:11:27.222Z,9.25
2024-04-12T06:14:00.379Z,8.95
2024-04-12T06:16:31.458Z,8.48
2024-04-12T06:19:04.516Z,9.23
2024-04-12T06:21:33.129Z,8.60
2024-04-12T06:24:10.411Z,9.07
2024-04-12T06:26:41.711Z,9.65
2024-04-12T06:29:22.774Z,8.93
2024-04-12T06:32:03.407Z,9.60
2024-04-12T06:34:38.454Z,9.63
2024-04-12T06:37:10.019Z,9.70
2024-04-12T06:39:38.060Z,9.90
2024-04-12T06:42:10.399Z,9.88
2024-04-12T06:44:38.199Z,9.82
2024-04-12T06:47:11.851Z,9.15
2024-04-12T06:49:45.955Z,10.13
2024-04-12T06:52:21.524Z,10.05
2024-04-12T06:54:49.249Z,10.27
2024-04-12T06:57:23.536Z,10.20
2024-04-12T06:59:55.558Z,10.15
2024-04-12T07:02:31.686Z,9.52
2024-04-12T07:05:00.539Z,9.48
2024-04-12T07:07:30.711Z,9.23
2024-04-12T07:10:03.268Z,9.77
2024-04-12T07:12:33.984Z,8.73
2024-04-12T07:15:01.767Z,9.80
2024-04-12T07:17:35.140Z,10.35
2024-04-12T07:20:02.449Z,8.75
2024-04-12T07:22:35.843Z,9.75
2024-04-12T07:25:07.380Z,9.15
2024-04-12T07:27:42.257Z,9.30
2024-04-12T07:30:10.012Z,9.25
2024-04-12T07:32:43.550Z,8.85
2024-04-12T07:35:24.425Z,8.60
2024-04-12T07:37:58.515Z,10.50
2024-04-12T07:40:33.660Z,8.45
2024-04-12T07:43:10.904Z,8.38
2024-04-12T07:45:39.947Z,8.30
2024-04-12T07:48:41.462Z,7.63
2024-04-12T07:51:11.613Z,7.50
2024-04-12T07:53:39.261Z,7.63
2024-04-12T07:56:16.133Z,7.90
2024-04-12T07:58:44.544Z,6.97
2024-04-12T08:01:19.821Z,6.60
2024-04-12T08:03:52.395Z,6.80
2024-04-12T08:06:38.878Z,6.28
2024-04-12T08:09:07.346Z,6.30
2024-04-12T08:11:42.874Z,5.68
2024-04-12T08:14:21.310Z,5.70
2024-04-12T08:16:54.101Z,6.88
2024-04-12T08:19:39.973Z,6.68
2024-04-12T08:22:21.702Z,6.50
2024-04-12T08:24:50.860Z,6.22
2024-04-12T08:27:25.540Z,6.07
2024-04-12T08:29:52.729Z,6.07
2024-04-12T08:32:29.355Z,6.78
2024-04-12T08:35:08.670Z,6.55
2024-04-12T08:37:40.789Z,6.10
2024-04-12T08:40:12.125Z,6.88
2024-04-12T08:42:42.890Z,6.15
2024-04-12T08:45:19.356Z,6.03
2024-04-12T08:48:03.568Z,5.70
2024-04-12T08:50:36.776Z,6.07
2024-04-12T08:53:13.836Z,5.32
2024-04-12T08:55:44.554Z,6.70
2024-04-12T08:58:22.360Z,6.30
2024-04-12T09:00:53.933Z,5.65
2024-04-12T09:03:31.600Z,5.82
2024-04-12T09:06:02.579Z,5.30
2024-04-12T09:08:38.109Z,5.47
2024-04-12T09:11:08.571Z,6.13
2024-04-12T09:13:40.494Z,5.25
2024-04-12T09:16:10.836Z,5.00
2024-04-12T09:18:46.782Z,4.40
2024-04-12T09:21:26.663Z,4.85
2024-04-12T09:24:10.962Z,4.78
2024-04-12T09:26:56.360Z,4.25
2024-04-12T09:29:28.554Z,4.80
2024-04-12T09:32:15.422Z,3.83
2024-04-12T09:34:48.074Z,4.72
2024-04-12T09:37:39.953Z,4.43
2024-04-12T09:40:28.003Z,5.20
2024-04-12T09:43:16.792Z,4.35
2024-04-12T09:45:50.515Z,4.78
2024-04-12T09:48:40.239Z,4.63
2024-04-12T09:51:28.836Z,4.93
2024-04-12T09:54:20.047Z,5.00
2024-04-12T09:57:12.623Z,5.03
2024-04-12T10:00:04.513Z,4.95
2024-04-12T10:02:50.489Z,4.40
2024-04-12T10:05:37.755Z,4.57
2024-04-12T10:08:28.815Z,5.05
2024-04-12T10:11:19.995Z,4.97
2024-04-12T10:14:07.600Z,4.40
2024-04-12T10:16:59.307Z,4.75
2024-04-12T10:19:45.286Z,4.70
2024-04-12T10:22:31.774Z,4.25
2024-04-12T10:25:21.444Z,4.90
2024-04-12T10:28:12.296Z,4.03
2024-04-12T10:31:02.810Z,4.30
2024-04-12T10:33:53.566Z,5.03
2024-04-12T10:36:39.424Z,3.92
2024-04-12T10:39:13.808Z,4.15
2024-04-12T10:41:46.806Z,3.45
2024-04-12T10:44:19.735Z,3.60
2024-04-12T10:46:51.518Z,2.92
2024-04-12T10:49:21.824Z,3.00
2024-04-12T10:51:53.866Z,3.20
2024-04-12T10:54:24.739Z,3.05
2024-04-12T10:56:58.906Z,3.42
2024-04-12T10:59:31.523Z,3.20
2024-04-12T11:02:02.414Z,2.63
2024-04-12T11:04:49.709Z,2.42
2024-04-12T11:07:22.997Z,2.72
2024-04-12T11:09:59.615Z,2.83
2024-04-12T11:12:31.469Z,2.00
2024-04-12T11:15:15.049Z,1.70
2024-04-12T11:18:01.254Z,2.20
2024-04-12T11:20:47.003Z,1.95
2024-04-12T11:23:36.913Z,1.77
2024-04-12T11:26:23.041Z,1.98
2024-04-12T11:29:08.432Z,1.88
2024-04-12T11:31:40.770Z,1.67
2024-04-12T11:34:12.309Z,1.92
2024-04-12T11:36:43.329Z,1.52
2024-04-12T11:39:19.304Z,1.60
2024-04-12T11:41:50.663Z,1.58
2024-04-12T11:44:18.982Z,1.77
2024-04-12T11:46:58.008Z,1.30
2024-04-12T11:49:26.566Z,1.40
2024-04-12T11:52:02.938Z,1.25
2024-04-12T11:54:31.320Z,1.35
2024-04-12T11:57:06.831Z,1.33
2024-04-12T11:59:34.122Z,1.10
2024-04-12T12:02:08.252Z,1.20
2024-04-12T12:04:36.234Z,1.42
2024-04-12T12:07:08.723Z,1.10
2024-04-12T12:09:38.030Z,1.52
2024-04-12T12:12:12.329Z,1.15
2024-04-12T12:14:42.539Z,1.33
2024-04-12T12:17:20.061Z,1.20
2024-04-12T12:19:51.623Z,1.20
2024-04-12T12:22:22.885Z,1.27
2024-04-12T12:24:50.534Z,1.05
2024-04-12T12:27:24.935Z,1.10
2024-04-12T12:29:55.030Z,1.40
2024-04-12T12:32:32.827Z,1.05
2024-04-12T12:35:00.058Z,1.30
2024-04-12T12:37:30.638Z,0.98
2024-04-12T12:40:01.357Z,1.20
2024-04-12T12:42:32.646Z,1.00
2024-04-12T12:45:00.326Z,1.17
2024-04-12T12:47:33.347Z,0.93
2024-04-12T12:50:02.577Z,1.30
2024-04-12T12:52:33.692Z,1.23
2024-04-12T12:55:03.429Z,1.02
2024-04-12T12:57:39.861Z,0.90
2024-04-12T13:00:19.915Z,1.05
2024-04-12T13:02:52.254Z,0.80
2024-04-12T13:05:32.041Z,1.02
2024-04-12T13:07:59.921Z,0.70
2024-04-12T13:10:35.013Z,0.80
2024-04-12T13:13:05.644Z,1.05
2024-04-12T13:15:38.457Z,0.70
2024-04-12T13:18:09.681Z,0.85
2024-04-12T13:20:39.790Z,0.93
2024-04-12T13:23:07.021Z,0.80
2024-04-12T13:25:38.834Z,0.90
2024-04-12T13:30:45.007Z,1.35
2024-04-12T13:33:15.957Z,1.02
2024-04-12T13:35:47.735Z,1.00
2024-04-12T13:38:17.071Z,1.00
2024-04-12T13:40:55.638Z,1.30
2024-04-12T13:43:26.394Z,1.10
2024-04-12T13:46:12.590Z,1.08
2024-04-12T13:49:00.781Z,1.00
2024-04-12T13:51:31.084Z,1.00
2024-04-12T13:54:00.790Z,0.90
2024-04-12T13:56:28.341Z,1.38
2024-04-12T13:58:59.828Z,1.60
2024-04-12T14:01:27.872Z,1.00
2024-04-12T14:04:04.756Z,1.40
2024-04-12T14:06:35.427Z,1.35
2024-04-12T14:09:09.945Z,1.10
2024-04-12T14:11:37.248Z,1.10
2024-04-12T14:14:06.949Z,0.95
2024-04-12T14:16:34.352Z,1.20
2024-04-12T14:19:06.677Z,1.02
2024-04-12T14:21:34.090Z,0.90
2024-04-12T14:24:12.108Z,0.77
2024-04-12T14:26:39.219Z,1.00
2024-04-12T14:29:09.951Z,0.95
2024-04-12T14:31:36.979Z,1.13
2024-04-12T14:34:11.512Z,0.80
2024-04-12T14:36:38.672Z,0.90
2024-04-12T14:39:16.756Z,0.80
2024-04-12T14:41:44.247Z,0.88
2024-04-12T14:44:14.182Z,0.77
2024-04-12T14:46:44.163Z,1.00
2024-04-12T14:49:16.478Z,0.80
2024-04-12T14:51:43.948Z,0.85
2024-04-12T14:54:14.918Z,1.17
2024-04-12T14:56:43.936Z,0.90
2024-04-12T14:59:15.509Z,0.88
2024-04-12T15:01:43.223Z,0.85
2024-04-12T15:04:29.065Z,1.00
2024-04-12T15:07:17.642Z,1.00
2024-04-12T15:10:03.281Z,1.00
2024-04-12T15:12:48.959Z,0.95
2024-04-12T15:15:34.437Z,1.13
2024-04-12T15:18:20.053Z,0.75
2024-04-12T15:21:05.508Z,1.00
2024-04-12T15:23:54.103Z,0.80
2024-04-12T15:26:39.971Z,1.13
2024-04-12T15:29:25.348Z,0.93
2024-04-12T15:32:10.903Z,1.30
2024-04-12T15:34:56.343Z,1.00
2024-04-12T15:37:41.869Z,1.15
2024-04-12T15:40:30.535Z,0.88
2024-04-12T15:43:15.923Z,1.00
2024-04-12T15:46:01.883Z,1.20
2024-04-12T15:48:33.751Z,1.10
2024-04-12T15:51:04.408Z,1.40
2024-04-12T15:53:32.153Z,0.90
2024-04-12T15:56:24.234Z,1.00
2024-04-12T15:59:09.815Z,1.00
2024-04-12T16:01:55.292Z,0.88
2024-04-12T16:04:41.008Z,1.05
2024-04-12T16:07:26.458Z,0.90
2024-04-12T16:10:12.067Z,1.20
2024-04-12T16:12:44.356Z,0.80
2024-04-12T16:15:14.014Z,1.10
2024-04-12T16:17:44.338Z,1.00
2024-04-12T16:20:15.216Z,1.00
2024-04-12T16:22:42.352Z,1.25
2024-04-12T16:25:11.997Z,1.17
2024-04-12T16:27:41.647Z,1.10
2024-04-12T16:30:12.912Z,1.48
2024-04-12T16:32:40.146Z,1.42
2024-04-12T16:35:10.550Z,1.13
2024-04-12T16:37:37.819Z,1.23
2024-04-12T16:40:08.562Z,1.13
2024-04-12T16:42:35.660Z,1.33
2024-04-12T16:45:09.038Z,1.10
2024-04-12T16:47:38.158Z,3.97
2024-04-12T16:50:09.367Z,1.42
2024-04-12T16:52:36.572Z,1.20
2024-04-12T16:55:08.042Z,1.25
2024-04-12T16:57:35.126Z,1.52
2024-04-12T17:00:08.355Z,1.30
2024-04-12T17:02:35.556Z,1.40
2024-04-12T17:05:05.357Z,1.00
2024-04-12T17:07:32.580Z,1.10
2024-04-12T17:10:02.729Z,0.85
2024-04-12T17:12:29.842Z,1.00
2024-04-12T17:14:59.616Z,1.00
2024-04-12T17:17:30.407Z,0.80
2024-04-12T17:20:00.403Z,1.10
2024-04-12T17:22:27.458Z,1.00
2024-04-12T17:24:58.063Z,1.40
2024-04-12T17:27:25.152Z,1.00
2024-04-12T17:29:54.862Z,1.08
2024-04-12T17:32:21.976Z,1.10
2024-04-12T17:34:55.601Z,1.00
2024-04-12T17:37:22.772Z,1.17
2024-04-12T17:39:52.744Z,1.05
2024-04-12T17:42:20.193Z,1.08
2024-04-12T17:44:49.980Z,1.25
2024-04-12T17:47:17.033Z,1.02
2024-04-12T17:49:46.713Z,1.75
2024-04-12T17:52:16.377Z,1.17
2024-04-12T17:54:46.323Z,1.30
2024-04-12T17:57:14.602Z,1.60
2024-04-12T17:59:44.311Z,1.00
2024-04-12T18:02:11.534Z,1.50
2024-04-12T18:04:41.377Z,1.38
2024-04-12T18:07:08.486Z,1.00
2024-04-12T18:09:40.703Z,1.25
2024-04-12T18:12:09.016Z,1.10
2024-04-12T18:14:38.799Z,1.20
2024-04-12T18:17:06.041Z,1.40
2024-04-12T18:19:35.988Z,1.10
2024-04-12T18:22:03.214Z,3.13
2024-04-12T18:24:32.933Z,2.20
2024-04-12T18:27:03.099Z,1.52
2024-04-12T18:29:34.421Z,1.30
2024-04-12T18:32:04.091Z,1.20
2024-04-12T18:34:35.760Z,1.65
2024-04-12T18:37:15.648Z,0.90
2024-04-12T18:40:01.212Z,0.90
2024-04-12T18:42:49.604Z,1.20
2024-04-12T18:45:20.575Z,1.02
2024-04-12T18:47:50.322Z,1.25
2024-04-12T18:50:21.662Z,1.35
2024-04-12T18:52:52.901Z,0.98
2024-04-12T18:55:23.938Z,1.10
2024-04-12T18:57:56.418Z,1.10
2024-04-12T19:00:26.426Z,1.88
2024-04-12T19:02:53.554Z,1.13
2024-04-12T19:05:23.402Z,1.40
2024-04-12T19:07:51.460Z,1.20
2024-04-12T19:10:21.330Z,1.20
2024-04-12T19:12:48.435Z,1.10
2024-04-12T19:15:21.430Z,1.15
2024-04-12T19:17:48.606Z,1.40
2024-04-12T19:20:18.892Z,1.08
2024-04-12T19:22:47.959Z,1.02
2024-04-12T19:25:17.930Z,1.17
2024-04-12T19:27:46.383Z,1.10
2024-04-12T19:30:16.831Z,0.93
2024-04-12T19:32:46.597Z,1.00
2024-04-12T19:35:16.413Z,1.20
2024-04-12T19:37:48.273Z,0.95
2024-04-12T19:40:20.800Z,1.25
2024-04-12T19:42:48.041Z,1.42
2024-04-12T19:45:17.897Z,1.33
2024-04-12T19:47:47.747Z,1.00
2024-04-12T19:50:17.671Z,1.30
2024-04-12T19:52:51.048Z,1.05
2024-04-12T19:55:26.276Z,1.02
2024-04-12T19:57:53.305Z,1.48
2024-04-12T20:00:23.405Z,1.23
2024-04-12T20:02:53.217Z,6.40
2024-04-12T20:05:24.485Z,2.70
2024-04-12T20:07:51.738Z,2.00
2024-04-12T20:10:21.426Z,1.50
2024-04-12T20:12:48.696Z,1.50
2024-04-12T20:15:19.061Z,1.65
2024-04-12T20:17:46.457Z,1.52
2024-04-12T20:20:21.735Z,1.50
2024-04-12T20:22:51.250Z,1.40
2024-04-12T20:25:26.975Z,1.70
2024-04-12T20:27:54.051Z,1.70
2024-04-12T20:30:34.771Z,1.33
2024-04-12T20:33:05.270Z,1.45
2024-04-12T20:35:49.052Z,1.67
2024-04-12T20:38:16.210Z,1.90
2024-04-12T20:40:45.842Z,1.80
2024-04-12T20:43:12.922Z,1.95
2024-04-12T20:45:45.174Z,1.55
2024-04-12T20:48:12.383Z,1.98
2024-04-12T20:50:45.803Z,1.83
2024-04-12T20:53:15.546Z,1.90
2024-04-12T20:55:47.314Z,1.85
2024-04-12T20:58:18.023Z,1.77
2024-04-12T21:00:45.583Z,1.80
2024-04-12T21:03:15.516Z,1.42
2024-04-12T21:05:45.375Z,2.08
2024-04-12T21:08:15.395Z,2.30
2024-04-12T21:10:42.440Z,1.83
2024-04-12T21:13:12.447Z,2.20
2024-04-12T21:15:39.571Z,1.67
2024-04-12T21:18:09.516Z,1.80
2024-04-12T21:20:41.034Z,1.80
2024-04-12T21:23:13.446Z,1.52
2024-04-12T21:25:40.498Z,1.73
2024-04-12T21:28:10.188Z,1.80
2024-04-12T21:30:37.393Z,2.00
2024-04-12T21:33:07.699Z,1.95
2024-04-12T21:35:34.801Z,1.90
2024-04-12T21:38:04.467Z,2.00
2024-04-12T21:40:36.967Z,1.70
2024-04-12T21:43:06.902Z,2.00
2024-04-12T21:45:34.065Z,1.80
2024-04-12T21:48:04.032Z,2.08
2024-04-12T21:50:31.196Z,1.92
2024-04-12T21:53:00.898Z,1.85
2024-04-12T21:55:28.627Z,2.20
2024-04-12T21:58:00.975Z,2.22
2024-04-12T22:00:32.626Z,2.30
2024-04-12T22:03:02.739Z,2.15
2024-04-12T22:05:29.810Z,2.10
2024-04-12T22:07:59.548Z,2.20
2024-04-12T22:10:26.613Z,2.20
2024-04-12T22:12:56.224Z,2.08
2024-04-12T22:15:25.981Z,1.90
2024-04-12T22:17:56.214Z,2.05
2024-04-12T22:20:23.323Z,2.08
2024-04-12T22:22:52.994Z,2.17
2024-04-12T22:25:21.864Z,2.20
2024-04-12T22:27:51.479Z,2.00
2024-04-12T22:30:19.555Z,2.30
2024-04-12T22:32:52.175Z,1.88
2024-04-12T22:35:19.835Z,1.98
2024-04-12T22:37:49.517Z,2.08
2024-04-12T22:40:16.781Z,2.10
2024-04-12T22:42:46.431Z,2.00
2024-04-12T22:45:13.576Z,1.90
2024-04-12T22:47:43.336Z,1.98
2024-04-12T22:50:13.079Z,1.52
2024-04-12T22:52:43.690Z,1.92
2024-04-12T22:55:11.496Z,1.75
2024-04-12T22:57:44.350Z,2.13
2024-04-12T23:00:13.321Z,1.70
2024-04-12T23:02:42.992Z,1.85
2024-04-12T23:05:12.688Z,1.73
2024-04-12T23:07:42.343Z,1.77
2024-04-12T23:10:09.432Z,1.77
2024-04-12T23:12:39.186Z,1.42
2024-04-12T23:15:06.733Z,1.40
2024-04-12T23:17:36.609Z,1.70
2024-04-12T23:20:04.049Z,1.50
2024-04-12T23:22:36.478Z,1.67
2024-04-12T23:25:03.802Z,1.90
2024-04-12T23:27:33.623Z,1.52
2024-04-12T23:30:00.888Z,1.60
2024-04-12T23:32:30.587Z,1.27
2024-04-12T23:34:59.892Z,1.42
2024-04-12T23:37:29.614Z,1.45
2024-04-12T23:40:01.721Z,1.40
2024-04-12T23:42:31.570Z,1.38
2024-04-12T23:45:01.787Z,1.60
2024-04-12T23:47:31.724Z,1.20
2024-04-12T23:49:59.558Z,1.60
2024-04-12T23:52:29.258Z,1.63
2024-04-12T23:54:59.829Z,1.52
2024-04-12T23:57:29.686Z,1.45
2024-04-12T23:59:56.746Z,1.40
